createdAt,value
2023-03-30T00:01:43.753Z,50.29
2023-03-30T00:04:12.321Z,50.43
2023-03-30T00:06:42.409Z,50.18
2023-03-30T00:09:10.080Z,50.55
2023-03-30T00:11:37.942Z,50.07
2023-03-30T00:14:05.624Z,50.82
2023-03-30T00:16:33.377Z,50.49
2023-03-30T00:19:02.445Z,50.46
2023-03-30T00:21:30.065Z,50.47
2023-03-30T00:23:57.700Z,50.87
2023-03-30T00:26:25.458Z,50.09
2023-03-30T00:28:53.079Z,50.43
2023-03-30T00:31:20.986Z,49.94
2023-03-30T00:33:48.760Z,50.16
2023-03-30T00:36:17.877Z,49.54
2023-03-30T00:38:46.634Z,49.16
2023-03-30T00:41:14.627Z,49.32
2023-03-30T00:44:02.941Z,49.26
2023-03-30T00:46:32.211Z,49.63
2023-03-30T00:49:04.074Z,49.44
2023-03-30T00:51:35.647Z,49.83
2023-03-30T00:54:08.244Z,49.81
2023-03-30T00:56:36.405Z,49.65
2023-03-30T00:59:04.421Z,49.38
2023-03-30T01:01:38.496Z,49.00
2023-03-30T01:04:08.567Z,49.55
2023-03-30T01:06:40.162Z,49.07
2023-03-30T01:09:08.319Z,48.85
2023-03-30T01:11:35.986Z,48.80
2023-03-30T01:14:07.289Z,48.78
2023-03-30T01:16:45.067Z,48.96
2023-03-30T01:19:49.244Z,48.56
2023-03-30T01:22:36.804Z,48.47
2023-03-30T01:25:49.976Z,48.04
2023-03-30T01:28:30.916Z,48.45
2023-03-30T01:31:27.468Z,48.38
2023-03-30T01:34:20.400Z,48.41
2023-03-30T01:37:10.291Z,48.78
2023-03-30T01:39:47.241Z,48.59
2023-03-30T01:42:23.152Z,49.01
2023-03-30T01:45:01.184Z,49.01
2023-03-30T01:47:35.240Z,49.08
2023-03-30T01:50:07.547Z,49.16
2023-03-30T01:52:41.220Z,49.48
2023-03-30T01:55:15.672Z,49.28
2023-03-30T01:57:49.518Z,49.79
2023-03-30T02:00:21.111Z,50.82
2023-03-30T02:02:54.447Z,53.73
2023-03-30T02:05:24.552Z,56.21
2023-03-30T02:07:56.404Z,57.34
2023-03-30T02:10:29.694Z,58.62
2023-03-30T02:13:00.051Z,59.62
2023-03-30T02:15:34.677Z,61.68
2023-03-30T02:18:03.089Z,62.25
2023-03-30T02:20:31.926Z,63.63
2023-03-30T02:22:59.992Z,63.65
2023-03-30T02:25:29.719Z,63.66
2023-03-30T02:27:57.441Z,63.50
2023-03-30T02:30:25.514Z,64.32
2023-03-30T02:32:56.169Z,63.87
2023-03-30T02:35:55.689Z,64.18
2023-03-30T02:38:57.596Z,64.79
2023-03-30T02:41:49.377Z,64.94
2023-03-30T02:44:25.771Z,66.31
2023-03-30T02:47:07.836Z,67.05
2023-03-30T02:49:53.758Z,67.76
2023-03-30T02:52:36.937Z,66.47
2023-03-30T02:55:20.535Z,66.91
2023-03-30T02:58:02.050Z,66.23
2023-03-30T03:00:35.012Z,67.08
2023-03-30T03:03:10.237Z,67.72
2023-03-30T03:05:38.644Z,68.00
2023-03-30T03:08:07.154Z,68.12
2023-03-30T03:10:36.845Z,67.58
2023-03-30T03:13:05.837Z,68.83
2023-03-30T03:15:33.558Z,68.57
2023-03-30T03:18:01.387Z,68.06
2023-03-30T03:20:30.589Z,67.39
2023-03-30T03:22:58.366Z,67.40
2023-03-30T03:25:26.233Z,67.80
2023-03-30T03:27:54.000Z,67.17
2023-03-30T03:30:23.285Z,66.97
2023-03-30T03:32:51.336Z,66.52
2023-03-30T03:35:19.138Z,66.92
2023-03-30T03:37:46.808Z,67.00
2023-03-30T03:40:14.700Z,66.92
2023-03-30T03:42:42.335Z,67.32
2023-03-30T03:45:10.778Z,67.66
2023-03-30T03:47:40.186Z,67.93
2023-03-30T03:50:09.965Z,67.55
2023-03-30T03:52:38.146Z,67.73
2023-03-30T03:55:07.834Z,67.80
2023-03-30T03:57:37.140Z,68.95
2023-03-30T04:00:15.308Z,68.83
2023-03-30T04:02:44.894Z,68.43
2023-03-30T04:05:13.340Z,68.66
2023-03-30T04:07:46.299Z,68.48
2023-03-30T04:10:15.757Z,67.94
2023-03-30T04:12:43.629Z,68.23
2023-03-30T04:15:11.861Z,67.69
2023-03-30T04:17:39.821Z,68.18
2023-03-30T04:20:12.157Z,68.65
2023-03-30T04:22:41.956Z,68.72
2023-03-30T04:25:11.610Z,69.23
2023-03-30T04:27:42.712Z,69.94
2023-03-30T04:30:11.758Z,70.46
2023-03-30T04:32:41.173Z,71.64
2023-03-30T04:35:11.180Z,72.19
2023-03-30T04:37:42.184Z,72.46
2023-03-30T04:40:11.028Z,72.30
2023-03-30T04:42:40.804Z,72.76
2023-03-30T04:45:10.360Z,72.47
2023-03-30T04:47:38.054Z,72.40
2023-03-30T04:50:06.574Z,73.42
2023-03-30T04:52:35.743Z,75.55
2023-03-30T04:55:03.487Z,74.43
2023-03-30T04:57:31.498Z,74.53
2023-03-30T04:59:59.162Z,75.33
2023-03-30T05:02:27.122Z,75.04
2023-03-30T05:04:54.816Z,76.17
2023-03-30T05:07:22.690Z,75.61
2023-03-30T05:09:52.537Z,75.66
2023-03-30T05:12:21.515Z,75.69
2023-03-30T05:14:49.279Z,75.09
2023-03-30T05:17:17.143Z,75.33
2023-03-30T05:19:44.889Z,76.35
2023-03-30T05:22:12.653Z,77.09
2023-03-30T05:24:40.587Z,76.37
2023-03-30T05:27:09.669Z,77.38
2023-03-30T05:29:37.342Z,78.25
2023-03-30T05:32:05.144Z,78.81
2023-03-30T05:34:32.892Z,78.20
2023-03-30T05:37:01.117Z,77.97
2023-03-30T05:39:28.785Z,80.69
2023-03-30T05:41:56.480Z,81.25
2023-03-30T05:44:25.910Z,82.50
2023-03-30T05:46:54.017Z,83.05
2023-03-30T05:49:21.852Z,83.42
2023-03-30T05:51:49.604Z,84.14
2023-03-30T05:54:17.527Z,84.92
2023-03-30T05:56:45.353Z,85.05
2023-03-30T05:59:13.936Z,85.22
2023-03-30T06:01:42.957Z,85.18
2023-03-30T06:04:10.786Z,85.44
2023-03-30T06:06:38.593Z,85.86
2023-03-30T06:09:06.598Z,85.77
2023-03-30T06:11:34.948Z,86.37
2023-03-30T06:14:02.727Z,86.33
2023-03-30T06:16:31.772Z,85.72
2023-03-30T06:19:00.940Z,84.90
2023-03-30T06:21:28.879Z,85.00
2023-03-30T06:23:56.476Z,84.54
2023-03-30T06:26:24.332Z,85.25
2023-03-30T06:28:51.986Z,85.19
2023-03-30T06:31:19.701Z,85.93
2023-03-30T06:33:47.423Z,84.62
2023-03-30T06:36:16.743Z,84.49
2023-03-30T06:38:44.711Z,84.97
2023-03-30T06:41:12.873Z,84.82
2023-03-30T06:43:41.713Z,84.37
2023-03-30T06:46:11.271Z,83.95
2023-03-30T06:48:39.463Z,83.59
2023-03-30T06:51:08.734Z,83.88
2023-03-30T06:53:37.778Z,83.65
2023-03-30T06:56:05.871Z,83.97
2023-03-30T06:58:34.295Z,84.00
2023-03-30T07:01:10.598Z,83.63
2023-03-30T07:03:38.482Z,83.86
2023-03-30T07:06:07.719Z,84.25
2023-03-30T07:08:37.643Z,84.49
2023-03-30T07:11:07.174Z,84.23
2023-03-30T07:13:35.441Z,83.28
2023-03-30T07:16:03.372Z,83.43
2023-03-30T07:18:31.344Z,83.99
2023-03-30T07:20:59.221Z,82.64
2023-03-30T07:23:27.089Z,82.59
2023-03-30T07:25:56.187Z,82.46
2023-03-30T07:28:23.838Z,82.59
2023-03-30T07:30:52.655Z,82.60
2023-03-30T07:33:21.789Z,83.47
2023-03-30T07:35:50.023Z,83.31
2023-03-30T07:38:19.092Z,83.40
2023-03-30T07:40:47.087Z,82.18
2023-03-30T07:43:16.143Z,82.35
2023-03-30T07:45:43.856Z,82.75
2023-03-30T07:48:11.593Z,83.13
2023-03-30T07:50:39.463Z,81.96
2023-03-30T07:53:07.700Z,82.19
2023-03-30T07:55:35.952Z,81.61
2023-03-30T07:58:04.450Z,82.19
2023-03-30T08:00:35.625Z,81.88
2023-03-30T08:03:03.832Z,80.68
2023-03-30T08:05:31.563Z,80.41
2023-03-30T08:07:59.171Z,79.00
2023-03-30T08:10:27.343Z,78.00
2023-03-30T08:12:55.067Z,76.67
2023-03-30T08:15:22.723Z,76.57
2023-03-30T08:17:51.857Z,75.68
2023-03-30T08:20:19.687Z,75.30
2023-03-30T08:22:48.582Z,73.82
2023-03-30T08:25:16.284Z,72.98
2023-03-30T08:27:44.044Z,72.74
2023-03-30T08:30:13.350Z,73.47
2023-03-30T08:32:41.102Z,71.24
2023-03-30T08:35:11.532Z,74.38
2023-03-30T08:37:39.267Z,76.03
2023-03-30T08:40:10.517Z,73.41
2023-03-30T08:42:52.752Z,72.97
2023-03-30T08:45:20.637Z,70.84
2023-03-30T08:47:50.487Z,69.34
2023-03-30T08:50:29.680Z,67.03
2023-03-30T08:52:57.453Z,68.17
2023-03-30T08:55:31.153Z,66.25
2023-03-30T08:58:03.319Z,63.26
2023-03-30T09:00:39.988Z,62.91
2023-03-30T09:03:16.824Z,63.30
2023-03-30T09:05:52.574Z,62.80
2023-03-30T09:08:23.019Z,63.25
2023-03-30T09:10:57.541Z,63.12
2023-03-30T09:13:29.146Z,61.92
2023-03-30T09:16:04.386Z,59.73
2023-03-30T09:18:34.709Z,58.80
2023-03-30T09:21:06.706Z,59.01
2023-03-30T09:23:36.116Z,58.11
2023-03-30T09:26:15.634Z,59.63
2023-03-30T09:28:50.638Z,59.66
2023-03-30T09:31:22.224Z,59.14
2023-03-30T09:33:58.391Z,59.50
2023-03-30T09:36:36.572Z,59.09
2023-03-30T09:39:10.791Z,59.44
2023-03-30T09:41:52.494Z,58.80
2023-03-30T09:44:25.362Z,58.28
2023-03-30T09:46:58.251Z,59.20
2023-03-30T09:49:28.786Z,58.69
2023-03-30T09:52:03.775Z,59.97
2023-03-30T09:54:38.862Z,60.83
2023-03-30T09:57:07.096Z,59.85
2023-03-30T09:59:36.244Z,61.24
2023-03-30T10:02:19.230Z,61.44
2023-03-30T10:04:58.323Z,61.83
2023-03-30T10:07:29.242Z,62.35
2023-03-30T10:09:58.815Z,62.52
2023-03-30T10:12:27.109Z,62.84
2023-03-30T10:14:57.017Z,63.26
2023-03-30T10:17:27.191Z,62.38
2023-03-30T10:20:14.827Z,63.29
2023-03-30T10:22:52.386Z,62.92
2023-03-30T10:25:23.677Z,63.10
2023-03-30T10:27:53.568Z,63.94
2023-03-30T10:30:23.512Z,63.28
2023-03-30T10:32:52.437Z,63.47
2023-03-30T10:35:24.130Z,63.71
2023-03-30T10:37:56.478Z,63.82
2023-03-30T10:40:28.479Z,63.37
2023-03-30T10:42:58.887Z,63.57
2023-03-30T10:45:32.854Z,63.07
2023-03-30T10:48:13.186Z,62.48
2023-03-30T10:50:49.231Z,60.91
2023-03-30T10:53:34.094Z,59.32
2023-03-30T10:56:07.839Z,60.09
2023-03-30T10:58:49.194Z,61.36
2023-03-30T11:01:23.329Z,59.35
2023-03-30T11:03:57.356Z,58.90
2023-03-30T11:06:30.877Z,59.49
2023-03-30T11:09:03.283Z,58.82
2023-03-30T11:11:36.570Z,58.69
2023-03-30T11:14:08.508Z,59.05
2023-03-30T11:16:45.696Z,59.72
2023-03-30T11:19:19.253Z,57.45
2023-03-30T11:21:56.773Z,56.36
2023-03-30T11:24:29.023Z,54.24
2023-03-30T11:27:04.048Z,55.31
2023-03-30T11:29:38.325Z,54.11
2023-03-30T11:32:20.421Z,53.01
2023-03-30T11:34:55.853Z,51.73
2023-03-30T11:37:30.731Z,50.32
2023-03-30T11:40:10.167Z,49.64
2023-03-30T11:42:38.820Z,50.58
2023-03-30T11:45:21.923Z,49.29
2023-03-30T11:48:06.637Z,48.95
2023-03-30T11:50:50.622Z,47.59
2023-03-30T11:53:28.319Z,48.13
2023-03-30T11:56:06.357Z,47.16
2023-03-30T11:58:37.644Z,46.37
2023-03-30T12:01:35.429Z,45.21
2023-03-30T12:04:09.082Z,44.00
2023-03-30T12:06:40.572Z,44.12
2023-03-30T12:09:28.841Z,43.84
2023-03-30T12:12:06.147Z,43.78
2023-03-30T12:14:54.704Z,44.31
2023-03-30T12:17:30.560Z,44.10
2023-03-30T12:20:04.749Z,43.32
2023-03-30T12:22:38.756Z,43.04
2023-03-30T12:25:19.608Z,43.85
2023-03-30T12:27:59.668Z,45.61
2023-03-30T12:30:30.827Z,45.92
2023-03-30T12:33:11.617Z,52.11
2023-03-30T12:36:00.193Z,57.05
2023-03-30T12:38:38.065Z,62.66
2023-03-30T12:41:14.627Z,63.78
2023-03-30T12:44:04.079Z,61.61
2023-03-30T12:46:38.131Z,60.11
2023-03-30T12:49:15.457Z,54.26
2023-03-30T12:51:58.126Z,53.70
2023-03-30T12:54:53.575Z,51.84
2023-03-30T12:57:34.978Z,49.24
2023-03-30T13:00:48.032Z,49.19
2023-03-30T13:03:38.206Z,48.06
2023-03-30T13:06:11.573Z,46.35
2023-03-30T13:08:41.496Z,44.68
2023-03-30T13:11:14.868Z,45.10
2023-03-30T13:13:50.652Z,43.95
2023-03-30T13:16:50.394Z,42.83
2023-03-30T13:19:27.585Z,42.85
2023-03-30T13:22:05.630Z,42.81
2023-03-30T13:24:41.091Z,42.26
2023-03-30T13:27:23.057Z,41.69
2023-03-30T13:29:55.492Z,40.00
2023-03-30T13:32:32.022Z,39.22
2023-03-30T13:35:29.932Z,39.33
2023-03-30T13:38:40.111Z,39.37
2023-03-30T13:41:21.044Z,39.35
2023-03-30T13:44:04.164Z,40.68
2023-03-30T13:46:36.669Z,41.40
2023-03-30T13:49:16.066Z,42.17
2023-03-30T13:51:46.596Z,41.88
2023-03-30T13:54:18.097Z,42.05
2023-03-30T13:56:49.529Z,42.68
2023-03-30T13:59:19.457Z,43.60
2023-03-30T14:01:52.009Z,44.80
2023-03-30T14:04:20.976Z,51.40
2023-03-30T14:06:52.392Z,58.19
2023-03-30T14:09:23.304Z,55.63
2023-03-30T14:11:53.406Z,54.33
2023-03-30T14:14:25.331Z,52.28
2023-03-30T14:16:53.434Z,50.77
2023-03-30T14:19:25.330Z,50.72
2023-03-30T14:21:59.096Z,50.13
2023-03-30T14:24:32.293Z,49.64
2023-03-30T14:27:04.611Z,50.16
2023-03-30T14:29:32.462Z,49.29
2023-03-30T14:34:34.961Z,49.28
2023-03-30T14:37:06.183Z,48.65
2023-03-30T14:39:38.526Z,47.67
2023-03-30T14:42:13.777Z,46.75
2023-03-30T14:44:42.046Z,47.22
2023-03-30T14:47:09.796Z,46.08
2023-03-30T14:49:38.172Z,45.64
2023-03-30T14:52:16.445Z,46.02
2023-03-30T14:54:54.496Z,45.67
2023-03-30T14:57:31.336Z,45.08
2023-03-30T15:00:08.230Z,44.26
2023-03-30T15:02:37.612Z,43.75
2023-03-30T15:05:09.262Z,43.20
2023-03-30T15:07:38.404Z,42.18
2023-03-30T15:10:07.284Z,42.10
2023-03-30T15:12:37.781Z,42.49
2023-03-30T15:15:08.656Z,42.81
2023-03-30T15:17:37.818Z,42.53
2023-03-30T15:20:07.842Z,42.69
2023-03-30T15:22:41.098Z,41.73
2023-03-30T15:25:12.740Z,40.95
2023-03-30T15:27:44.092Z,41.98
2023-03-30T15:30:22.732Z,41.18
2023-03-30T15:32:56.028Z,41.09
2023-03-30T15:35:25.174Z,41.60
2023-03-30T15:37:59.134Z,41.80
2023-03-30T15:40:33.466Z,42.04
2023-03-30T15:43:18.862Z,43.06
2023-03-30T15:45:49.445Z,43.42
2023-03-30T15:48:20.864Z,43.31
2023-03-30T15:50:54.058Z,43.73
2023-03-30T15:53:34.874Z,43.65
2023-03-30T15:56:04.131Z,44.03
2023-03-30T15:58:34.159Z,45.20
2023-03-30T16:01:04.676Z,44.90
2023-03-30T16:03:36.195Z,45.33
2023-03-30T16:06:03.884Z,46.09
2023-03-30T16:08:32.962Z,46.20
2023-03-30T16:11:01.167Z,46.60
2023-03-30T16:13:29.216Z,48.26
2023-03-30T16:15:57.772Z,51.67
2023-03-30T16:18:25.602Z,52.29
2023-03-30T16:20:53.273Z,52.16
2023-03-30T16:23:21.038Z,52.52
2023-03-30T16:25:50.045Z,52.17
2023-03-30T16:28:18.606Z,53.95
2023-03-30T16:30:48.889Z,56.12
2023-03-30T16:33:16.681Z,57.74
2023-03-30T16:35:44.676Z,58.41
2023-03-30T16:38:16.371Z,58.99
2023-03-30T16:40:46.237Z,59.88
2023-03-30T16:43:15.225Z,60.01
2023-03-30T16:45:42.946Z,60.12
2023-03-30T16:48:13.131Z,61.37
2023-03-30T16:50:42.369Z,61.03
2023-03-30T16:53:11.527Z,61.89
2023-03-30T16:55:40.307Z,61.31
2023-03-30T16:58:09.717Z,63.37
2023-03-30T17:00:42.008Z,63.65
2023-03-30T17:03:10.448Z,66.11
2023-03-30T17:05:38.645Z,64.67
2023-03-30T17:08:07.851Z,66.14
2023-03-30T17:10:40.305Z,66.89
2023-03-30T17:13:09.202Z,67.23
2023-03-30T17:15:39.092Z,66.92
2023-03-30T17:18:09.034Z,67.48
2023-03-30T17:20:39.295Z,67.71
2023-03-30T17:23:10.115Z,67.32
2023-03-30T17:25:39.893Z,66.77
2023-03-30T17:28:09.493Z,66.41
2023-03-30T17:30:40.690Z,67.27
2023-03-30T17:33:10.782Z,67.78
2023-03-30T17:35:39.258Z,67.76
2023-03-30T17:38:09.134Z,67.74
2023-03-30T17:40:39.059Z,67.05
2023-03-30T17:43:07.293Z,66.80
2023-03-30T17:45:37.228Z,67.44
2023-03-30T17:48:08.416Z,67.50
2023-03-30T17:50:39.333Z,67.76
2023-03-30T17:53:07.459Z,66.17
2023-03-30T17:55:35.047Z,66.56
2023-03-30T17:58:03.096Z,66.21
2023-03-30T18:00:32.678Z,67.78
2023-03-30T18:03:01.530Z,70.40
2023-03-30T18:05:32.679Z,71.36
2023-03-30T18:08:00.413Z,69.67
2023-03-30T18:10:30.083Z,70.67
2023-03-30T18:12:58.044Z,69.22
2023-03-30T18:15:27.920Z,68.37
2023-03-30T18:17:57.089Z,68.40
2023-03-30T18:20:28.157Z,68.38
2023-03-30T18:22:57.777Z,68.15
2023-03-30T18:25:32.737Z,67.97
2023-03-30T18:28:01.506Z,67.89
2023-03-30T18:30:33.042Z,68.01
2023-03-30T18:33:01.494Z,69.39
2023-03-30T18:35:30.741Z,71.72
2023-03-30T18:38:00.052Z,74.12
2023-03-30T18:40:32.843Z,74.29
2023-03-30T18:43:01.513Z,76.85
2023-03-30T18:45:31.266Z,76.88
2023-03-30T18:47:59.765Z,80.01
2023-03-30T18:50:36.771Z,80.18
2023-03-30T18:53:08.166Z,80.35
2023-03-30T18:55:37.757Z,79.70
2023-03-30T18:58:07.362Z,79.15
2023-03-30T19:00:36.373Z,78.95
2023-03-30T19:03:04.686Z,78.99
2023-03-30T19:05:34.490Z,77.92
2023-03-30T19:08:02.661Z,78.04
2023-03-30T19:10:33.471Z,78.39
2023-03-30T19:13:01.363Z,78.23
2023-03-30T19:15:31.378Z,78.23
2023-03-30T19:17:59.210Z,79.13
2023-03-30T19:20:28.313Z,79.54
2023-03-30T19:22:56.735Z,78.37
2023-03-30T19:25:26.910Z,79.76
2023-03-30T19:28:02.528Z,77.27
2023-03-30T19:30:34.216Z,77.64
2023-03-30T19:33:05.425Z,77.78
2023-03-30T19:35:34.017Z,77.43
2023-03-30T19:38:02.090Z,77.45
2023-03-30T19:40:29.867Z,76.71
2023-03-30T19:42:58.981Z,77.97
2023-03-30T19:45:26.651Z,77.13
2023-03-30T19:47:54.396Z,77.09
2023-03-30T19:50:24.898Z,77.21
2023-03-30T19:52:54.342Z,75.55
2023-03-30T19:55:22.584Z,75.49
2023-03-30T19:57:50.614Z,77.69
2023-03-30T20:00:20.870Z,78.12
2023-03-30T20:02:50.959Z,78.84
2023-03-30T20:05:20.699Z,79.67
2023-03-30T20:07:48.484Z,78.98
2023-03-30T20:10:19.840Z,80.64
2023-03-30T20:12:48.378Z,80.30
2023-03-30T20:15:16.779Z,80.86
2023-03-30T20:17:45.829Z,80.95
2023-03-30T20:20:17.085Z,81.25
2023-03-30T20:22:46.542Z,82.62
2023-03-30T20:25:16.684Z,83.90
2023-03-30T20:27:44.370Z,85.36
2023-03-30T20:30:18.832Z,86.41
2023-03-30T20:33:03.951Z,87.58
2023-03-30T20:35:35.257Z,88.23
2023-03-30T20:38:04.562Z,88.16
2023-03-30T20:40:32.873Z,86.33
2023-03-30T20:43:02.189Z,85.77
2023-03-30T20:45:30.512Z,80.87
2023-03-30T20:48:05.940Z,79.74
2023-03-30T20:50:34.963Z,78.27
2023-03-30T20:53:02.707Z,77.99
2023-03-30T20:55:30.349Z,78.74
2023-03-30T20:57:57.964Z,79.11
2023-03-30T21:00:25.689Z,80.26
2023-03-30T21:02:53.354Z,80.22
2023-03-30T21:05:22.341Z,79.60
2023-03-30T21:07:50.133Z,79.73
2023-03-30T21:10:18.112Z,79.90
2023-03-30T21:12:45.748Z,80.82
2023-03-30T21:15:14.023Z,81.45
2023-03-30T21:17:41.770Z,80.67
2023-03-30T21:20:11.642Z,80.73
2023-03-30T21:22:40.718Z,81.57
2023-03-30T21:25:09.019Z,82.09
2023-03-30T21:27:36.746Z,82.72
2023-03-30T21:30:05.200Z,83.33
2023-03-30T21:32:32.924Z,83.86
2023-03-30T21:35:00.660Z,84.26
2023-03-30T21:37:28.268Z,84.87
2023-03-30T21:39:57.523Z,84.96
2023-03-30T21:42:25.208Z,85.69
2023-03-30T21:44:52.835Z,85.81
2023-03-30T21:47:20.518Z,85.83
2023-03-30T21:49:48.148Z,85.04
2023-03-30T21:52:15.807Z,84.86
2023-03-30T21:54:45.209Z,85.16
2023-03-30T21:57:14.376Z,85.39
2023-03-30T21:59:42.100Z,86.17
2023-03-30T22:02:09.770Z,85.92
2023-03-30T22:04:37.430Z,85.65
2023-03-30T22:07:05.293Z,86.07
2023-03-30T22:09:32.952Z,85.49
2023-03-30T22:12:00.568Z,85.88
2023-03-30T22:14:29.693Z,85.85
2023-03-30T22:16:57.803Z,86.03
2023-03-30T22:19:25.677Z,85.93
2023-03-30T22:21:53.522Z,84.92
2023-03-30T22:24:21.488Z,85.05
2023-03-30T22:26:49.185Z,85.18
2023-03-30T22:29:20.714Z,84.64
2023-03-30T22:31:51.417Z,84.45
2023-03-30T22:34:19.107Z,85.00
2023-03-30T22:36:46.964Z,84.80
2023-03-30T22:39:14.732Z,84.79
2023-03-30T22:41:42.400Z,83.42
2023-03-30T22:44:11.148Z,83.59
2023-03-30T22:46:38.862Z,83.64
2023-03-30T22:49:07.902Z,83.05
2023-03-30T22:51:38.051Z,83.02
2023-03-30T22:54:06.211Z,81.60
2023-03-30T22:56:33.941Z,81.50
2023-03-30T22:59:01.886Z,81.70
2023-03-30T23:01:32.255Z,81.63
2023-03-30T23:04:00.494Z,80.82
2023-03-30T23:06:29.656Z,81.93
2023-03-30T23:08:57.642Z,79.34
2023-03-30T23:11:26.447Z,76.10
2023-03-30T23:13:54.368Z,74.19
2023-03-30T23:16:22.744Z,73.59
2023-03-30T23:18:51.378Z,73.57
2023-03-30T23:21:22.036Z,72.69
2023-03-30T23:23:51.498Z,71.80
2023-03-30T23:26:19.450Z,71.94
2023-03-30T23:28:47.147Z,72.16
2023-03-30T23:31:16.515Z,71.32
2023-03-30T23:33:45.510Z,70.79
2023-03-30T23:36:14.252Z,70.07
2023-03-30T23:38:42.050Z,69.77
2023-03-30T23:41:13.868Z,69.89
2023-03-30T23:43:41.537Z,69.64
2023-03-30T23:46:09.918Z,68.90
2023-03-30T23:48:37.888Z,68.98
2023-03-30T23:51:06.212Z,68.57
2023-03-30T23:53:34.097Z,68.47
2023-03-30T23:56:05.704Z,67.75
2023-03-30T23:58:35.030Z,68.61
